sensor_id;sensor_type;location;lat;lon;timestamp;P1;durP1;ratioP1;P2;durP2;ratioP2
6642;SDS011;3357;48.050;7.800;2023-08-06T00:01:58;1.40;;;1.30;;
6642;SDS011;3357;48.050;7.800;2023-08-06T00:04:23;3.47;;;1.60;;
6642;SDS011;3357;48.050;7.800;2023-08-06T00:06:49;3.70;;;1.60;;
6642;SDS011;3357;48.050;7.800;2023-08-06T00:09:14;3.00;;;2.10;;
6642;SDS011;3357;48.050;7.800;2023-08-06T00:11:39;2.30;;;1.30;;
6642;SDS011;3357;48.050;7.800;2023-08-06T00:14:06;2.40;;;1.10;;
6642;SDS011;3357;48.050;7.800;2023-08-06T00:16:31;2.07;;;1.20;;
6642;SDS011;3357;48.050;7.800;2023-08-06T00:18:56;4.40;;;1.30;;
6642;SDS011;3357;48.050;7.800;2023-08-06T00:21:22;4.53;;;1.70;;
6642;SDS011;3357;48.050;7.800;2023-08-06T00:23:47;10.60;;;1.40;;
6642;SDS011;3357;48.050;7.800;2023-08-06T00:26:12;3.17;;;1.70;;
6642;SDS011;3357;48.050;7.800;2023-08-06T00:28:37;2.10;;;1.33;;
6642;SDS011;3357;48.050;7.800;2023-08-06T00:31:02;1.90;;;1.43;;
6642;SDS011;3357;48.050;7.800;2023-08-06T00:33:28;5.60;;;1.60;;
6642;SDS011;3357;48.050;7.800;2023-08-06T00:35:53;3.37;;;1.33;;
6642;SDS011;3357;48.050;7.800;2023-08-06T00:38:18;1.50;;;1.40;;
6642;SDS011;3357;48.050;7.800;2023-08-06T00:40:44;3.30;;;1.40;;
6642;SDS011;3357;48.050;7.800;2023-08-06T00:43:09;7.50;;;1.50;;
6642;SDS011;3357;48.050;7.800;2023-08-06T00:45:35;2.43;;;1.53;;
6642;SDS011;3357;48.050;7.800;2023-08-06T00:48:02;2.50;;;1.37;;
6642;SDS011;3357;48.050;7.800;2023-08-06T00:50:29;2.90;;;1.50;;
6642;SDS011;3357;48.050;7.800;2023-08-06T00:52:54;4.03;;;1.40;;
6642;SDS011;3357;48.050;7.800;2023-08-06T00:55:19;2.50;;;1.20;;
6642;SDS011;3357;48.050;7.800;2023-08-06T00:57:45;2.40;;;1.40;;
6642;SDS011;3357;48.050;7.800;2023-08-06T01:00:10;3.47;;;1.40;;
6642;SDS011;3357;48.050;7.800;2023-08-06T01:02:36;1.50;;;1.40;;
6642;SDS011;3357;48.050;7.800;2023-08-06T01:05:02;2.23;;;1.20;;
6642;SDS011;3357;48.050;7.800;2023-08-06T01:07:40;4.13;;;1.60;;
6642;SDS011;3357;48.050;7.800;2023-08-06T01:10:56;1.50;;;1.40;;
6642;SDS011;3357;48.050;7.800;2023-08-06T01:15:54;1.20;;;1.10;;
6642;SDS011;3357;48.050;7.800;2023-08-06T01:18:24;2.13;;;1.27;;
6642;SDS011;3357;48.050;7.800;2023-08-06T01:20:49;2.50;;;1.20;;
6642;SDS011;3357;48.050;7.800;2023-08-06T01:23:15;3.30;;;1.10;;
6642;SDS011;3357;48.050;7.800;2023-08-06T01:28:40;1.50;;;1.20;;
6642;SDS011;3357;48.050;7.800;2023-08-06T01:31:10;3.00;;;1.10;;
6642;SDS011;3357;48.050;7.800;2023-08-06T01:33:39;1.80;;;1.50;;
6642;SDS011;3357;48.050;7.800;2023-08-06T01:36:06;1.87;;;1.43;;
6642;SDS011;3357;48.050;7.800;2023-08-06T01:38:31;1.27;;;1.10;;
6642;SDS011;3357;48.050;7.800;2023-08-06T01:40:57;1.70;;;1.30;;
6642;SDS011;3357;48.050;7.800;2023-08-06T01:43:22;0.97;;;0.87;;
6642;SDS011;3357;48.050;7.800;2023-08-06T01:45:47;2.30;;;1.57;;
6642;SDS011;3357;48.050;7.800;2023-08-06T01:48:13;2.97;;;1.47;;
6642;SDS011;3357;48.050;7.800;2023-08-06T01:50:38;1.57;;;1.40;;
6642;SDS011;3357;48.050;7.800;2023-08-06T01:53:03;1.30;;;1.10;;
6642;SDS011;3357;48.050;7.800;2023-08-06T01:55:29;3.40;;;1.43;;
6642;SDS011;3357;48.050;7.800;2023-08-06T01:57:55;1.20;;;1.10;;
6642;SDS011;3357;48.050;7.800;2023-08-06T02:00:20;2.90;;;1.40;;
6642;SDS011;3357;48.050;7.800;2023-08-06T02:02:46;2.80;;;1.20;;
6642;SDS011;3357;48.050;7.800;2023-08-06T02:05:11;1.77;;;1.00;;
6642;SDS011;3357;48.050;7.800;2023-08-06T02:07:36;5.30;;;1.20;;
6642;SDS011;3357;48.050;7.800;2023-08-06T02:10:01;1.97;;;1.20;;
6642;SDS011;3357;48.050;7.800;2023-08-06T02:12:27;2.23;;;1.30;;
6642;SDS011;3357;48.050;7.800;2023-08-06T02:14:52;3.83;;;1.60;;
6642;SDS011;3357;48.050;7.800;2023-08-06T02:17:17;3.23;;;1.50;;
6642;SDS011;3357;48.050;7.800;2023-08-06T02:19:42;1.37;;;1.20;;
6642;SDS011;3357;48.050;7.800;2023-08-06T02:22:08;1.73;;;1.40;;
6642;SDS011;3357;48.050;7.800;2023-08-06T02:24:33;3.70;;;1.20;;
6642;SDS011;3357;48.050;7.800;2023-08-06T02:26:58;5.23;;;1.30;;
6642;SDS011;3357;48.050;7.800;2023-08-06T02:29:24;1.83;;;1.40;;
6642;SDS011;3357;48.050;7.800;2023-08-06T02:31:49;5.43;;;1.50;;
6642;SDS011;3357;48.050;7.800;2023-08-06T02:34:14;1.90;;;1.57;;
6642;SDS011;3357;48.050;7.800;2023-08-06T02:36:39;1.57;;;1.43;;
6642;SDS011;3357;48.050;7.800;2023-08-06T02:39:05;3.07;;;1.50;;
6642;SDS011;3357;48.050;7.800;2023-08-06T02:41:30;3.20;;;1.33;;
6642;SDS011;3357;48.050;7.800;2023-08-06T02:43:55;6.97;;;1.50;;
6642;SDS011;3357;48.050;7.800;2023-08-06T02:46:21;1.80;;;1.00;;
6642;SDS011;3357;48.050;7.800;2023-08-06T02:48:46;1.30;;;1.20;;
6642;SDS011;3357;48.050;7.800;2023-08-06T02:51:11;1.33;;;1.13;;
6642;SDS011;3357;48.050;7.800;2023-08-06T02:53:36;4.20;;;1.50;;
6642;SDS011;3357;48.050;7.800;2023-08-06T02:56:02;1.37;;;1.27;;
6642;SDS011;3357;48.050;7.800;2023-08-06T02:58:27;4.77;;;1.40;;
6642;SDS011;3357;48.050;7.800;2023-08-06T03:01:05;2.10;;;1.53;;
6642;SDS011;3357;48.050;7.800;2023-08-06T03:03:32;3.60;;;1.10;;
6642;SDS011;3357;48.050;7.800;2023-08-06T03:05:57;2.60;;;1.10;;
6642;SDS011;3357;48.050;7.800;2023-08-06T03:08:23;1.13;;;1.03;;
6642;SDS011;3357;48.050;7.800;2023-08-06T03:10:51;0.93;;;0.90;;
6642;SDS011;3357;48.050;7.800;2023-08-06T03:13:17;1.90;;;1.07;;
6642;SDS011;3357;48.050;7.800;2023-08-06T03:15:43;1.90;;;0.80;;
6642;SDS011;3357;48.050;7.800;2023-08-06T03:18:08;1.80;;;0.90;;
6642;SDS011;3357;48.050;7.800;2023-08-06T03:20:34;1.50;;;0.67;;
6642;SDS011;3357;48.050;7.800;2023-08-06T03:22:59;2.50;;;0.60;;
6642;SDS011;3357;48.050;7.800;2023-08-06T03:25:24;1.73;;;0.63;;
6642;SDS011;3357;48.050;7.800;2023-08-06T03:27:50;0.97;;;0.73;;
6642;SDS011;3357;48.050;7.800;2023-08-06T03:30:15;2.00;;;0.80;;
6642;SDS011;3357;48.050;7.800;2023-08-06T03:32:40;1.53;;;0.67;;
6642;SDS011;3357;48.050;7.800;2023-08-06T03:35:06;1.80;;;0.50;;
6642;SDS011;3357;48.050;7.800;2023-08-06T03:37:31;1.37;;;0.60;;
6642;SDS011;3357;48.050;7.800;2023-08-06T03:39:56;2.30;;;0.60;;
6642;SDS011;3357;48.050;7.800;2023-08-06T03:42:22;1.37;;;0.60;;
6642;SDS011;3357;48.050;7.800;2023-08-06T03:44:47;0.63;;;0.57;;
6642;SDS011;3357;48.050;7.800;2023-08-06T03:47:13;1.33;;;0.50;;
6642;SDS011;3357;48.050;7.800;2023-08-06T03:49:38;0.40;;;0.40;;
6642;SDS011;3357;48.050;7.800;2023-08-06T03:52:04;0.63;;;0.50;;
6642;SDS011;3357;48.050;7.800;2023-08-06T03:54:30;1.10;;;0.40;;
6642;SDS011;3357;48.050;7.800;2023-08-06T03:56:55;1.80;;;0.40;;
6642;SDS011;3357;48.050;7.800;2023-08-06T03:59:20;0.40;;;0.40;;
6642;SDS011;3357;48.050;7.800;2023-08-06T04:01:45;2.00;;;0.47;;
6642;SDS011;3357;48.050;7.800;2023-08-06T04:04:11;1.13;;;0.53;;
6642;SDS011;3357;48.050;7.800;2023-08-06T04:06:36;1.60;;;0.60;;
6642;SDS011;3357;48.050;7.800;2023-08-06T04:09:01;2.13;;;0.70;;
6642;SDS011;3357;48.050;7.800;2023-08-06T04:11:26;1.70;;;0.70;;
6642;SDS011;3357;48.050;7.800;2023-08-06T04:13:52;0.70;;;0.60;;
6642;SDS011;3357;48.050;7.800;2023-08-06T04:16:19;2.70;;;0.70;;
6642;SDS011;3357;48.050;7.800;2023-08-06T04:18:44;1.83;;;0.50;;
6642;SDS011;3357;48.050;7.800;2023-08-06T04:21:10;3.47;;;0.70;;
6642;SDS011;3357;48.050;7.800;2023-08-06T04:23:36;4.07;;;0.77;;
6642;SDS011;3357;48.050;7.800;2023-08-06T04:26:01;3.33;;;0.60;;
6642;SDS011;3357;48.050;7.800;2023-08-06T04:28:26;2.07;;;0.80;;
6642;SDS011;3357;48.050;7.800;2023-08-06T04:30:51;4.97;;;0.70;;
6642;SDS011;3357;48.050;7.800;2023-08-06T04:33:19;7.57;;;0.60;;
6642;SDS011;3357;48.050;7.800;2023-08-06T04:35:45;5.07;;;0.83;;
6642;SDS011;3357;48.050;7.800;2023-08-06T04:38:10;6.07;;;1.27;;
6642;SDS011;3357;48.050;7.800;2023-08-06T04:40:36;2.00;;;0.90;;
6642;SDS011;3357;48.050;7.800;2023-08-06T04:43:01;4.37;;;0.83;;
6642;SDS011;3357;48.050;7.800;2023-08-06T04:45:27;4.67;;;0.90;;
6642;SDS011;3357;48.050;7.800;2023-08-06T04:47:52;3.87;;;0.80;;
6642;SDS011;3357;48.050;7.800;2023-08-06T04:50:18;1.20;;;0.80;;
6642;SDS011;3357;48.050;7.800;2023-08-06T04:52:44;4.63;;;0.70;;
6642;SDS011;3357;48.050;7.800;2023-08-06T04:55:09;4.40;;;0.90;;
6642;SDS011;3357;48.050;7.800;2023-08-06T04:57:34;5.10;;;0.93;;
6642;SDS011;3357;48.050;7.800;2023-08-06T05:00:00;3.80;;;0.90;;
6642;SDS011;3357;48.050;7.800;2023-08-06T05:02:25;2.53;;;1.13;;
6642;SDS011;3357;48.050;7.800;2023-08-06T05:04:50;4.43;;;0.80;;
6642;SDS011;3357;48.050;7.800;2023-08-06T05:07:15;4.67;;;1.23;;
6642;SDS011;3357;48.050;7.800;2023-08-06T05:09:41;6.80;;;1.00;;
6642;SDS011;3357;48.050;7.800;2023-08-06T05:12:06;2.03;;;1.10;;
6642;SDS011;3357;48.050;7.800;2023-08-06T05:14:32;6.60;;;1.00;;
6642;SDS011;3357;48.050;7.800;2023-08-06T05:16:57;7.50;;;1.13;;
6642;SDS011;3357;48.050;7.800;2023-08-06T05:19:22;7.07;;;1.00;;
6642;SDS011;3357;48.050;7.800;2023-08-06T05:21:47;7.53;;;1.20;;
6642;SDS011;3357;48.050;7.800;2023-08-06T05:24:13;7.03;;;1.97;;
6642;SDS011;3357;48.050;7.800;2023-08-06T05:26:38;11.47;;;1.03;;
6642;SDS011;3357;48.050;7.800;2023-08-06T05:29:03;6.97;;;1.20;;
6642;SDS011;3357;48.050;7.800;2023-08-06T05:31:29;9.30;;;1.23;;
6642;SDS011;3357;48.050;7.800;2023-08-06T05:33:54;4.37;;;0.87;;
6642;SDS011;3357;48.050;7.800;2023-08-06T05:36:20;4.60;;;1.20;;
6642;SDS011;3357;48.050;7.800;2023-08-06T05:38:46;3.90;;;1.03;;
6642;SDS011;3357;48.050;7.800;2023-08-06T05:41:11;2.00;;;0.80;;
6642;SDS011;3357;48.050;7.800;2023-08-06T05:43:36;3.60;;;1.10;;
6642;SDS011;3357;48.050;7.800;2023-08-06T05:46:02;5.80;;;1.50;;
6642;SDS011;3357;48.050;7.800;2023-08-06T05:48:27;6.40;;;0.80;;
6642;SDS011;3357;48.050;7.800;2023-08-06T05:50:53;2.70;;;0.90;;
6642;SDS011;3357;48.050;7.800;2023-08-06T05:53:18;3.60;;;0.93;;
6642;SDS011;3357;48.050;7.800;2023-08-06T05:55:43;3.93;;;0.90;;
6642;SDS011;3357;48.050;7.800;2023-08-06T05:58:09;5.23;;;0.90;;
6642;SDS011;3357;48.050;7.800;2023-08-06T06:00:35;3.73;;;0.90;;
6642;SDS011;3357;48.050;7.800;2023-08-06T06:03:00;5.97;;;1.17;;
6642;SDS011;3357;48.050;7.800;2023-08-06T06:05:25;9.87;;;1.40;;
6642;SDS011;3357;48.050;7.800;2023-08-06T06:07:51;7.10;;;1.03;;
6642;SDS011;3357;48.050;7.800;2023-08-06T06:10:16;2.60;;;1.00;;
6642;SDS011;3357;48.050;7.800;2023-08-06T06:12:41;4.53;;;1.67;;
6642;SDS011;3357;48.050;7.800;2023-08-06T06:15:07;8.63;;;0.90;;
6642;SDS011;3357;48.050;7.800;2023-08-06T06:17:32;5.73;;;0.90;;
6642;SDS011;3357;48.050;7.800;2023-08-06T06:19:58;10.70;;;0.90;;
6642;SDS011;3357;48.050;7.800;2023-08-06T06:22:23;4.40;;;1.07;;
6642;SDS011;3357;48.050;7.800;2023-08-06T06:24:48;5.10;;;0.90;;
6642;SDS011;3357;48.050;7.800;2023-08-06T06:27:14;4.00;;;0.87;;
6642;SDS011;3357;48.050;7.800;2023-08-06T06:29:39;7.87;;;1.10;;
6642;SDS011;3357;48.050;7.800;2023-08-06T06:32:04;5.67;;;0.90;;
6642;SDS011;3357;48.050;7.800;2023-08-06T06:34:30;5.27;;;0.90;;
6642;SDS011;3357;48.050;7.800;2023-08-06T06:36:55;6.07;;;0.80;;
6642;SDS011;3357;48.050;7.800;2023-08-06T06:39:20;6.70;;;1.00;;
6642;SDS011;3357;48.050;7.800;2023-08-06T06:41:46;1.60;;;0.83;;
6642;SDS011;3357;48.050;7.800;2023-08-06T06:44:11;2.43;;;0.70;;
6642;SDS011;3357;48.050;7.800;2023-08-06T06:46:36;4.67;;;0.80;;
6642;SDS011;3357;48.050;7.800;2023-08-06T06:49:01;2.10;;;0.73;;
6642;SDS011;3357;48.050;7.800;2023-08-06T06:51:27;5.10;;;0.77;;
6642;SDS011;3357;48.050;7.800;2023-08-06T06:53:52;2.03;;;0.90;;
6642;SDS011;3357;48.050;7.800;2023-08-06T06:56:17;1.00;;;0.60;;
6642;SDS011;3357;48.050;7.800;2023-08-06T06:58:44;3.80;;;0.73;;
6642;SDS011;3357;48.050;7.800;2023-08-06T07:01:09;1.77;;;0.70;;
6642;SDS011;3357;48.050;7.800;2023-08-06T07:03:35;1.70;;;0.70;;
6642;SDS011;3357;48.050;7.800;2023-08-06T07:06:01;1.63;;;0.70;;
6642;SDS011;3357;48.050;7.800;2023-08-06T07:08:26;2.77;;;0.80;;
6642;SDS011;3357;48.050;7.800;2023-08-06T07:10:59;0.83;;;0.50;;
6642;SDS011;3357;48.050;7.800;2023-08-06T07:13:28;2.30;;;0.60;;
6642;SDS011;3357;48.050;7.800;2023-08-06T07:15:54;2.20;;;0.60;;
6642;SDS011;3357;48.050;7.800;2023-08-06T07:18:20;4.67;;;0.73;;
6642;SDS011;3357;48.050;7.800;2023-08-06T07:20:49;0.93;;;0.53;;
6642;SDS011;3357;48.050;7.800;2023-08-06T07:23:21;3.53;;;0.60;;
6642;SDS011;3357;48.050;7.800;2023-08-06T07:25:47;2.20;;;0.57;;
6642;SDS011;3357;48.050;7.800;2023-08-06T07:28:13;1.47;;;0.70;;
6642;SDS011;3357;48.050;7.800;2023-08-06T07:30:39;2.27;;;0.70;;
6642;SDS011;3357;48.050;7.800;2023-08-06T07:33:05;0.50;;;0.40;;
6642;SDS011;3357;48.050;7.800;2023-08-06T07:35:31;6.63;;;0.70;;
6642;SDS011;3357;48.050;7.800;2023-08-06T07:37:56;0.53;;;0.50;;
6642;SDS011;3357;48.050;7.800;2023-08-06T07:40:21;0.80;;;0.60;;
6642;SDS011;3357;48.050;7.800;2023-08-06T07:42:47;0.87;;;0.50;;
6642;SDS011;3357;48.050;7.800;2023-08-06T07:45:12;0.60;;;0.50;;
6642;SDS011;3357;48.050;7.800;2023-08-06T07:47:37;2.07;;;0.60;;
6642;SDS011;3357;48.050;7.800;2023-08-06T07:50:03;0.60;;;0.60;;
6642;SDS011;3357;48.050;7.800;2023-08-06T07:52:28;1.23;;;0.47;;
6642;SDS011;3357;48.050;7.800;2023-08-06T07:54:53;0.50;;;0.50;;
6642;SDS011;3357;48.050;7.800;2023-08-06T07:57:19;1.23;;;0.70;;
6642;SDS011;3357;48.050;7.800;2023-08-06T07:59:44;0.57;;;0.30;;
6642;SDS011;3357;48.050;7.800;2023-08-06T08:02:09;0.80;;;0.43;;
6642;SDS011;3357;48.050;7.800;2023-08-06T08:04:34;0.40;;;0.40;;
6642;SDS011;3357;48.050;7.800;2023-08-06T08:07:00;0.57;;;0.30;;
6642;SDS011;3357;48.050;7.800;2023-08-06T08:09:25;0.40;;;0.40;;
6642;SDS011;3357;48.050;7.800;2023-08-06T08:11:50;0.30;;;0.30;;
6642;SDS011;3357;48.050;7.800;2023-08-06T08:14:16;0.60;;;0.40;;
6642;SDS011;3357;48.050;7.800;2023-08-06T08:16:41;0.70;;;0.50;;
6642;SDS011;3357;48.050;7.800;2023-08-06T08:19:06;0.40;;;0.40;;
6642;SDS011;3357;48.050;7.800;2023-08-06T08:21:32;0.70;;;0.70;;
6642;SDS011;3357;48.050;7.800;2023-08-06T08:23:59;1.03;;;0.40;;
6642;SDS011;3357;48.050;7.800;2023-08-06T08:26:25;0.40;;;0.40;;
6642;SDS011;3357;48.050;7.800;2023-08-06T08:28:52;0.40;;;0.40;;
6642;SDS011;3357;48.050;7.800;2023-08-06T08:31:17;0.30;;;0.30;;
6642;SDS011;3357;48.050;7.800;2023-08-06T08:33:43;1.30;;;0.43;;
6642;SDS011;3357;48.050;7.800;2023-08-06T08:36:08;1.33;;;0.50;;
6642;SDS011;3357;48.050;7.800;2023-08-06T08:38:34;0.50;;;0.43;;
6642;SDS011;3357;48.050;7.800;2023-08-06T08:41:00;0.93;;;0.50;;
6642;SDS011;3357;48.050;7.800;2023-08-06T08:43:25;1.60;;;0.57;;
6642;SDS011;3357;48.050;7.800;2023-08-06T08:45:51;0.30;;;0.30;;
6642;SDS011;3357;48.050;7.800;2023-08-06T08:48:19;2.77;;;0.57;;
6642;SDS011;3357;48.050;7.800;2023-08-06T08:50:45;0.83;;;0.50;;
6642;SDS011;3357;48.050;7.800;2023-08-06T08:53:15;0.40;;;0.40;;
6642;SDS011;3357;48.050;7.800;2023-08-06T08:55:41;0.40;;;0.40;;
6642;SDS011;3357;48.050;7.800;2023-08-06T08:58:08;1.00;;;0.43;;
6642;SDS011;3357;48.050;7.800;2023-08-06T09:00:33;0.40;;;0.30;;
6642;SDS011;3357;48.050;7.800;2023-08-06T09:02:59;0.50;;;0.40;;
6642;SDS011;3357;48.050;7.800;2023-08-06T09:05:26;0.40;;;0.40;;
6642;SDS011;3357;48.050;7.800;2023-08-06T09:07:53;0.43;;;0.43;;
6642;SDS011;3357;48.050;7.800;2023-08-06T09:10:20;0.50;;;0.40;;
6642;SDS011;3357;48.050;7.800;2023-08-06T09:12:48;0.90;;;0.40;;
6642;SDS011;3357;48.050;7.800;2023-08-06T09:15:14;0.47;;;0.40;;
6642;SDS011;3357;48.050;7.800;2023-08-06T09:17:39;0.60;;;0.40;;
6642;SDS011;3357;48.050;7.800;2023-08-06T09:20:13;0.50;;;0.50;;
6642;SDS011;3357;48.050;7.800;2023-08-06T09:22:39;0.40;;;0.40;;
6642;SDS011;3357;48.050;7.800;2023-08-06T09:25:06;0.50;;;0.47;;
6642;SDS011;3357;48.050;7.800;2023-08-06T09:27:35;0.80;;;0.40;;
6642;SDS011;3357;48.050;7.800;2023-08-06T09:30:03;0.40;;;0.40;;
6642;SDS011;3357;48.050;7.800;2023-08-06T09:32:45;0.30;;;0.30;;
6642;SDS011;3357;48.050;7.800;2023-08-06T09:35:21;0.37;;;0.37;;
6642;SDS011;3357;48.050;7.800;2023-08-06T09:37:46;4.03;;;0.40;;
6642;SDS011;3357;48.050;7.800;2023-08-06T09:40:27;0.30;;;0.30;;
6642;SDS011;3357;48.050;7.800;2023-08-06T09:42:54;1.60;;;0.40;;
6642;SDS011;3357;48.050;7.800;2023-08-06T09:45:20;1.63;;;0.40;;
6642;SDS011;3357;48.050;7.800;2023-08-06T09:47:47;0.53;;;0.53;;
6642;SDS011;3357;48.050;7.800;2023-08-06T09:50:16;0.40;;;0.40;;
6642;SDS011;3357;48.050;7.800;2023-08-06T09:52:43;0.40;;;0.40;;
6642;SDS011;3357;48.050;7.800;2023-08-06T09:55:10;0.50;;;0.40;;
6642;SDS011;3357;48.050;7.800;2023-08-06T09:57:35;0.50;;;0.40;;
6642;SDS011;3357;48.050;7.800;2023-08-06T10:00:02;0.40;;;0.40;;
6642;SDS011;3357;48.050;7.800;2023-08-06T10:02:27;0.40;;;0.40;;
6642;SDS011;3357;48.050;7.800;2023-08-06T10:04:53;0.50;;;0.47;;
6642;SDS011;3357;48.050;7.800;2023-08-06T10:07:20;0.60;;;0.40;;
6642;SDS011;3357;48.050;7.800;2023-08-06T10:09:47;0.60;;;0.40;;
6642;SDS011;3357;48.050;7.800;2023-08-06T10:12:12;1.47;;;0.40;;
6642;SDS011;3357;48.050;7.800;2023-08-06T10:14:38;0.40;;;0.40;;
6642;SDS011;3357;48.050;7.800;2023-08-06T10:17:04;0.30;;;0.30;;
6642;SDS011;3357;48.050;7.800;2023-08-06T10:19:30;0.47;;;0.40;;
6642;SDS011;3357;48.050;7.800;2023-08-06T10:22:11;0.40;;;0.40;;
6642;SDS011;3357;48.050;7.800;2023-08-06T10:27:22;0.40;;;0.40;;
6642;SDS011;3357;48.050;7.800;2023-08-06T10:29:52;0.30;;;0.30;;
6642;SDS011;3357;48.050;7.800;2023-08-06T10:32:17;10.53;;;0.60;;
6642;SDS011;3357;48.050;7.800;2023-08-06T10:34:59;0.43;;;0.40;;
6642;SDS011;3357;48.050;7.800;2023-08-06T10:37:35;0.40;;;0.40;;
6642;SDS011;3357;48.050;7.800;2023-08-06T10:40:01;1.23;;;0.40;;
6642;SDS011;3357;48.050;7.800;2023-08-06T10:42:27;0.40;;;0.40;;
6642;SDS011;3357;48.050;7.800;2023-08-06T10:47:53;1.10;;;0.40;;
6642;SDS011;3357;48.050;7.800;2023-08-06T10:50:18;0.60;;;0.40;;
6642;SDS011;3357;48.050;7.800;2023-08-06T10:52:44;0.50;;;0.40;;
6642;SDS011;3357;48.050;7.800;2023-08-06T10:55:11;0.73;;;0.40;;
6642;SDS011;3357;48.050;7.800;2023-08-06T10:57:36;1.13;;;0.50;;
6642;SDS011;3357;48.050;7.800;2023-08-06T11:00:03;0.43;;;0.40;;
6642;SDS011;3357;48.050;7.800;2023-08-06T11:02:33;4.10;;;0.50;;
6642;SDS011;3357;48.050;7.800;2023-08-06T11:05:04;0.40;;;0.40;;
6642;SDS011;3357;48.050;7.800;2023-08-06T11:07:32;0.40;;;0.40;;
6642;SDS011;3357;48.050;7.800;2023-08-06T11:10:04;0.40;;;0.40;;
6642;SDS011;3357;48.050;7.800;2023-08-06T11:12:31;1.33;;;0.40;;
6642;SDS011;3357;48.050;7.800;2023-08-06T11:14:57;0.30;;;0.30;;
6642;SDS011;3357;48.050;7.800;2023-08-06T11:17:22;0.40;;;0.40;;
6642;SDS011;3357;48.050;7.800;2023-08-06T11:19:47;0.40;;;0.40;;
6642;SDS011;3357;48.050;7.800;2023-08-06T11:22:14;0.40;;;0.40;;
6642;SDS011;3357;48.050;7.800;2023-08-06T11:24:39;0.40;;;0.30;;
6642;SDS011;3357;48.050;7.800;2023-08-06T11:27:14;0.30;;;0.30;;
6642;SDS011;3357;48.050;7.800;2023-08-06T11:29:40;0.37;;;0.37;;
6642;SDS011;3357;48.050;7.800;2023-08-06T11:32:06;0.30;;;0.30;;
6642;SDS011;3357;48.050;7.800;2023-08-06T11:34:32;1.67;;;0.40;;
6642;SDS011;3357;48.050;7.800;2023-08-06T11:36:58;0.40;;;0.40;;
6642;SDS011;3357;48.050;7.800;2023-08-06T11:39:23;0.40;;;0.40;;
6642;SDS011;3357;48.050;7.800;2023-08-06T11:41:49;0.53;;;0.53;;
6642;SDS011;3357;48.050;7.800;2023-08-06T11:44:14;0.43;;;0.43;;
6642;SDS011;3357;48.050;7.800;2023-08-06T11:49:21;0.40;;;0.40;;
6642;SDS011;3357;48.050;7.800;2023-08-06T11:52:07;0.40;;;0.40;;
6642;SDS011;3357;48.050;7.800;2023-08-06T11:54:33;0.40;;;0.40;;
6642;SDS011;3357;48.050;7.800;2023-08-06T11:56:59;0.40;;;0.40;;
6642;SDS011;3357;48.050;7.800;2023-08-06T11:59:25;0.67;;;0.50;;
6642;SDS011;3357;48.050;7.800;2023-08-06T12:01:51;0.40;;;0.40;;
6642;SDS011;3357;48.050;7.800;2023-08-06T12:04:17;0.30;;;0.30;;
6642;SDS011;3357;48.050;7.800;2023-08-06T12:06:42;0.30;;;0.30;;
6642;SDS011;3357;48.050;7.800;2023-08-06T12:09:08;0.70;;;0.50;;
6642;SDS011;3357;48.050;7.800;2023-08-06T12:11:33;1.40;;;0.50;;
6642;SDS011;3357;48.050;7.800;2023-08-06T12:13:59;0.43;;;0.43;;
6642;SDS011;3357;48.050;7.800;2023-08-06T12:16:24;0.30;;;0.30;;
6642;SDS011;3357;48.050;7.800;2023-08-06T12:18:49;0.53;;;0.40;;
6642;SDS011;3357;48.050;7.800;2023-08-06T12:21:15;1.03;;;0.50;;
6642;SDS011;3357;48.050;7.800;2023-08-06T12:23:40;0.40;;;0.40;;
6642;SDS011;3357;48.050;7.800;2023-08-06T12:26:05;1.10;;;0.33;;
6642;SDS011;3357;48.050;7.800;2023-08-06T12:28:30;0.30;;;0.30;;
6642;SDS011;3357;48.050;7.800;2023-08-06T12:30:56;0.70;;;0.50;;
6642;SDS011;3357;48.050;7.800;2023-08-06T12:33:21;1.33;;;0.60;;
6642;SDS011;3357;48.050;7.800;2023-08-06T12:35:46;1.17;;;0.40;;
6642;SDS011;3357;48.050;7.800;2023-08-06T12:38:11;0.40;;;0.40;;
6642;SDS011;3357;48.050;7.800;2023-08-06T12:40:38;0.50;;;0.50;;
6642;SDS011;3357;48.050;7.800;2023-08-06T12:43:03;0.40;;;0.40;;
6642;SDS011;3357;48.050;7.800;2023-08-06T12:45:29;0.50;;;0.50;;
6642;SDS011;3357;48.050;7.800;2023-08-06T12:47:54;0.60;;;0.60;;
6642;SDS011;3357;48.050;7.800;2023-08-06T12:50:20;0.40;;;0.40;;
6642;SDS011;3357;48.050;7.800;2023-08-06T12:52:45;0.47;;;0.47;;
6642;SDS011;3357;48.050;7.800;2023-08-06T12:55:10;0.73;;;0.40;;
6642;SDS011;3357;48.050;7.800;2023-08-06T12:57:35;0.40;;;0.40;;
6642;SDS011;3357;48.050;7.800;2023-08-06T13:00:01;0.50;;;0.50;;
6642;SDS011;3357;48.050;7.800;2023-08-06T13:02:26;0.60;;;0.50;;
6642;SDS011;3357;48.050;7.800;2023-08-06T13:04:54;0.50;;;0.50;;
6642;SDS011;3357;48.050;7.800;2023-08-06T13:07:20;1.33;;;0.43;;
6642;SDS011;3357;48.050;7.800;2023-08-06T13:09:45;1.27;;;0.60;;
6642;SDS011;3357;48.050;7.800;2023-08-06T13:12:10;0.40;;;0.40;;
6642;SDS011;3357;48.050;7.800;2023-08-06T13:14:35;0.40;;;0.40;;
6642;SDS011;3357;48.050;7.800;2023-08-06T13:17:01;0.60;;;0.60;;
6642;SDS011;3357;48.050;7.800;2023-08-06T13:19:27;0.50;;;0.50;;
6642;SDS011;3357;48.050;7.800;2023-08-06T13:24:26;0.93;;;0.50;;
6642;SDS011;3357;48.050;7.800;2023-08-06T13:26:52;0.40;;;0.40;;
6642;SDS011;3357;48.050;7.800;2023-08-06T13:29:17;0.50;;;0.50;;
6642;SDS011;3357;48.050;7.800;2023-08-06T13:31:42;0.50;;;0.50;;
6642;SDS011;3357;48.050;7.800;2023-08-06T13:34:08;0.53;;;0.53;;
6642;SDS011;3357;48.050;7.800;2023-08-06T13:36:34;0.97;;;0.50;;
6642;SDS011;3357;48.050;7.800;2023-08-06T13:38:59;1.17;;;0.77;;
6642;SDS011;3357;48.050;7.800;2023-08-06T13:41:25;0.70;;;0.70;;
6642;SDS011;3357;48.050;7.800;2023-08-06T13:43:51;2.00;;;0.73;;
6642;SDS011;3357;48.050;7.800;2023-08-06T13:46:17;0.50;;;0.50;;
6642;SDS011;3357;48.050;7.800;2023-08-06T13:48:44;0.70;;;0.70;;
6642;SDS011;3357;48.050;7.800;2023-08-06T13:51:13;1.70;;;0.60;;
6642;SDS011;3357;48.050;7.800;2023-08-06T13:53:39;0.50;;;0.50;;
6642;SDS011;3357;48.050;7.800;2023-08-06T13:56:05;0.60;;;0.60;;
6642;SDS011;3357;48.050;7.800;2023-08-06T13:58:31;0.60;;;0.60;;
6642;SDS011;3357;48.050;7.800;2023-08-06T14:00:57;0.50;;;0.50;;
6642;SDS011;3357;48.050;7.800;2023-08-06T14:03:23;3.47;;;0.60;;
6642;SDS011;3357;48.050;7.800;2023-08-06T14:05:48;2.30;;;0.50;;
6642;SDS011;3357;48.050;7.800;2023-08-06T14:08:13;0.80;;;0.50;;
6642;SDS011;3357;48.050;7.800;2023-08-06T14:10:39;4.40;;;0.70;;
6642;SDS011;3357;48.050;7.800;2023-08-06T14:13:04;1.43;;;0.70;;
6642;SDS011;3357;48.050;7.800;2023-08-06T14:15:30;0.60;;;0.60;;
6642;SDS011;3357;48.050;7.800;2023-08-06T14:17:55;0.60;;;0.60;;
6642;SDS011;3357;48.050;7.800;2023-08-06T14:20:20;0.83;;;0.60;;
6642;SDS011;3357;48.050;7.800;2023-08-06T14:22:46;0.57;;;0.57;;
6642;SDS011;3357;48.050;7.800;2023-08-06T14:25:11;1.80;;;0.50;;
6642;SDS011;3357;48.050;7.800;2023-08-06T14:27:37;0.53;;;0.53;;
6642;SDS011;3357;48.050;7.800;2023-08-06T14:30:04;0.80;;;0.80;;
6642;SDS011;3357;48.050;7.800;2023-08-06T14:32:31;1.00;;;0.50;;
6642;SDS011;3357;48.050;7.800;2023-08-06T14:34:57;0.53;;;0.50;;
6642;SDS011;3357;48.050;7.800;2023-08-06T14:37:23;0.73;;;0.60;;
6642;SDS011;3357;48.050;7.800;2023-08-06T14:39:49;0.87;;;0.50;;
6642;SDS011;3357;48.050;7.800;2023-08-06T14:42:14;0.50;;;0.50;;
6642;SDS011;3357;48.050;7.800;2023-08-06T14:44:39;1.97;;;0.50;;
6642;SDS011;3357;48.050;7.800;2023-08-06T14:47:06;0.50;;;0.50;;
6642;SDS011;3357;48.050;7.800;2023-08-06T14:49:31;0.50;;;0.50;;
6642;SDS011;3357;48.050;7.800;2023-08-06T14:51:56;0.50;;;0.50;;
6642;SDS011;3357;48.050;7.800;2023-08-06T14:54:24;0.50;;;0.50;;
6642;SDS011;3357;48.050;7.800;2023-08-06T14:56:50;1.00;;;0.50;;
6642;SDS011;3357;48.050;7.800;2023-08-06T14:59:15;3.07;;;0.60;;
6642;SDS011;3357;48.050;7.800;2023-08-06T15:01:41;1.83;;;0.67;;
6642;SDS011;3357;48.050;7.800;2023-08-06T15:04:06;0.67;;;0.57;;
6642;SDS011;3357;48.050;7.800;2023-08-06T15:06:31;0.60;;;0.60;;
6642;SDS011;3357;48.050;7.800;2023-08-06T15:08:56;2.00;;;0.80;;
6642;SDS011;3357;48.050;7.800;2023-08-06T15:11:25;1.30;;;0.60;;
6642;SDS011;3357;48.050;7.800;2023-08-06T15:13:51;0.70;;;0.70;;
6642;SDS011;3357;48.050;7.800;2023-08-06T15:16:16;0.60;;;0.60;;
6642;SDS011;3357;48.050;7.800;2023-08-06T15:18:41;0.80;;;0.70;;
6642;SDS011;3357;48.050;7.800;2023-08-06T15:21:08;1.57;;;0.70;;
6642;SDS011;3357;48.050;7.800;2023-08-06T15:23:33;0.70;;;0.67;;
6642;SDS011;3357;48.050;7.800;2023-08-06T15:25:59;0.60;;;0.60;;